createdAt,value
2017-10-18T01:36:51.610Z,1018.12
2017-10-18T01:36:52.183Z,1018.14
2017-10-18T01:36:52.780Z,1018.12
2017-10-18T01:36:53.379Z,1018.13
2017-10-18T01:36:53.980Z,1018.12
2017-10-18T01:36:54.580Z,1018.11
2017-10-18T01:36:55.180Z,1018.08
2017-10-18T01:36:55.784Z,1018.09
2017-10-18T01:37:50.282Z,1018.07
2017-10-18T01:37:50.857Z,1018.08
2017-10-18T01:37:51.457Z,1018.06
2017-10-18T01:37:52.063Z,1018.07
2017-10-18T01:37:52.656Z,1018.09
2017-10-18T01:37:53.255Z,1018.06
2017-10-18T01:37:53.856Z,1018.09
2017-10-18T01:37:54.456Z,1018.07
2017-10-18T01:38:48.958Z,1018.02
2017-10-18T01:38:49.535Z,1018.02
2017-10-18T01:38:50.135Z,1017.99
2017-10-18T01:38:50.733Z,1018.01
2017-10-18T01:38:51.334Z,1018.02
2017-10-18T01:38:51.933Z,1017.97
2017-10-18T01:38:52.534Z,1018.01
2017-10-18T01:38:53.133Z,1018.01
2017-10-18T01:39:46.611Z,1018.04
2017-10-18T01:39:47.194Z,1017.96
2017-10-18T01:39:47.790Z,1017.99
2017-10-18T01:39:48.389Z,1017.98
2017-10-18T01:39:48.985Z,1017.98
2017-10-18T01:39:49.585Z,1018.00
2017-10-18T01:39:50.187Z,1017.97
2017-10-18T01:39:50.786Z,1017.98
2017-10-18T01:40:44.266Z,1017.97
2017-10-18T01:40:44.840Z,1017.94
2017-10-18T01:40:45.437Z,1018.00
2017-10-18T01:40:46.047Z,1018.03
2017-10-18T01:40:46.661Z,1018.01
2017-10-18T01:40:47.237Z,1018.01
2017-10-18T01:40:47.838Z,1018.02
2017-10-18T01:40:48.440Z,1018.04
2017-10-18T01:41:41.916Z,1018.04
2017-10-18T01:41:42.492Z,1018.01
2017-10-18T01:41:43.091Z,1018.02
2017-10-18T01:41:43.690Z,1017.98
2017-10-18T01:41:44.290Z,1018.03
2017-10-18T01:41:44.896Z,1018.01
2017-10-18T01:41:45.490Z,1018.03
2017-10-18T01:41:46.091Z,1018.01
2017-10-18T01:42:39.569Z,1018.00
2017-10-18T01:42:40.144Z,1017.97
2017-10-18T01:42:42.618Z,1017.98
2017-10-18T01:42:43.119Z,1017.98
2017-10-18T01:42:43.718Z,1017.97
2017-10-18T01:43:37.222Z,1017.98
2017-10-18T01:43:37.795Z,1018.00
2017-10-18T01:43:38.395Z,1018.00
2017-10-18T01:43:38.996Z,1017.99
2017-10-18T01:43:39.596Z,1017.99
2017-10-18T01:43:40.195Z,1017.97
2017-10-18T01:43:40.796Z,1017.96
2017-10-18T01:43:41.395Z,1017.99
2017-10-18T01:44:35.896Z,1018.02
2017-10-18T01:44:36.471Z,1017.97
2017-10-18T01:44:37.071Z,1018.00
2017-10-18T01:44:37.670Z,1018.01
2017-10-18T01:44:38.269Z,1018.00
2017-10-18T01:44:38.869Z,1017.99
2017-10-18T01:44:39.471Z,1017.97
2017-10-18T01:44:40.070Z,1017.96
2017-10-18T01:45:33.548Z,1017.98
2017-10-18T01:45:34.123Z,1018.00
2017-10-18T01:45:34.724Z,1018.00
2017-10-18T01:45:35.323Z,1018.03
2017-10-18T01:45:35.922Z,1018.02
2017-10-18T01:45:36.522Z,1018.02
2017-10-18T01:45:37.124Z,1018.00
2017-10-18T01:45:37.729Z,1018.01
2017-10-18T01:46:32.223Z,1018.01
2017-10-18T01:46:32.798Z,1018.05
2017-10-18T01:46:33.398Z,1018.01
2017-10-18T01:46:33.997Z,1018.03
2017-10-18T01:46:34.599Z,1018.06
2017-10-18T01:46:35.198Z,1018.03
2017-10-18T01:46:35.798Z,1018.03
2017-10-18T01:46:36.397Z,1018.03
2017-10-18T01:47:29.977Z,1018.02
2017-10-18T01:47:30.553Z,1018.00
2017-10-18T01:47:31.153Z,1018.01
2017-10-18T01:47:31.752Z,1018.03
2017-10-18T01:47:32.354Z,1018.06
2017-10-18T01:47:32.955Z,1018.02
2017-10-18T01:47:33.557Z,1018.02
2017-10-18T01:47:34.154Z,1018.05
2017-10-18T01:48:28.654Z,1018.00
2017-10-18T01:48:29.228Z,1017.99
2017-10-18T01:48:29.827Z,1017.99
2017-10-18T01:48:30.428Z,1017.97
2017-10-18T01:48:31.028Z,1017.99
2017-10-18T01:48:31.627Z,1018.01
2017-10-18T01:48:32.229Z,1018.01
2017-10-18T01:48:32.827Z,1018.00
2017-10-18T01:49:27.336Z,1018.04
2017-10-18T01:49:27.908Z,1018.01
2017-10-18T01:49:28.503Z,1018.03
2017-10-18T01:49:29.103Z,1018.00
2017-10-18T01:49:29.704Z,1018.01
2017-10-18T01:49:30.303Z,1018.03
2017-10-18T01:49:30.903Z,1018.01
2017-10-18T01:49:31.503Z,1018.02
2017-10-18T01:50:24.981Z,1018.01
2017-10-18T01:50:25.558Z,1017.99
2017-10-18T01:50:26.156Z,1018.00
2017-10-18T01:50:26.759Z,1017.98
2017-10-18T01:50:27.356Z,1018.03
2017-10-18T01:50:27.957Z,1017.99
2017-10-18T01:50:28.556Z,1018.02
2017-10-18T01:50:29.155Z,1017.98
2017-10-18T01:51:23.658Z,1018.06
2017-10-18T01:51:24.232Z,1018.05
2017-10-18T01:51:24.831Z,1018.06
2017-10-18T01:51:25.432Z,1018.06
2017-10-18T01:51:26.041Z,1018.05
2017-10-18T01:51:26.632Z,1018.06
2017-10-18T01:51:27.231Z,1018.06
2017-10-18T01:51:27.830Z,1018.06
2017-10-18T01:52:21.308Z,1018.07
2017-10-18T01:52:21.884Z,1018.07
2017-10-18T01:52:22.484Z,1018.06
2017-10-18T01:52:23.083Z,1018.10
2017-10-18T01:52:23.684Z,1018.07
2017-10-18T01:52:24.284Z,1018.08
2017-10-18T01:52:24.883Z,1018.08
2017-10-18T01:52:25.483Z,1018.05
2017-10-18T01:53:18.959Z,1018.04
2017-10-18T01:53:19.535Z,1018.07
2017-10-18T01:53:20.134Z,1018.03
2017-10-18T01:53:20.740Z,1018.07
2017-10-18T01:53:21.335Z,1018.07
2017-10-18T01:53:21.935Z,1018.04
2017-10-18T01:53:22.535Z,1018.10
2017-10-18T01:53:23.135Z,1018.08
2017-10-18T01:54:17.636Z,1018.05
2017-10-18T01:54:18.210Z,1018.06
2017-10-18T01:54:18.813Z,1018.08
2017-10-18T01:54:19.410Z,1018.04
2017-10-18T01:54:20.010Z,1018.06
2017-10-18T01:54:20.611Z,1018.03
2017-10-18T01:54:21.212Z,1018.05
2017-10-18T01:54:21.810Z,1018.03
2017-10-18T01:55:16.319Z,1018.03
2017-10-18T01:55:16.886Z,1018.07
2017-10-18T01:55:17.485Z,1018.07
2017-10-18T01:55:18.086Z,1018.04
2017-10-18T01:55:18.686Z,1018.06
2017-10-18T01:55:19.285Z,1018.06
2017-10-18T01:55:19.886Z,1018.04
2017-10-18T01:55:20.486Z,1018.07
2017-10-18T01:56:14.988Z,1018.06
2017-10-18T01:56:15.562Z,1018.06
2017-10-18T01:56:16.164Z,1018.09
2017-10-18T01:56:16.761Z,1018.07
2017-10-18T01:56:17.360Z,1018.10
2017-10-18T01:56:17.960Z,1018.07
2017-10-18T01:56:18.561Z,1018.06
2017-10-18T01:56:19.160Z,1018.09
2017-10-18T01:57:13.662Z,1018.06
2017-10-18T01:57:14.238Z,1018.05
2017-10-18T01:57:14.846Z,1018.08
2017-10-18T01:57:15.438Z,1018.06
2017-10-18T01:57:16.046Z,1018.02
2017-10-18T01:57:16.638Z,1018.02
2017-10-18T01:57:17.237Z,1018.04
2017-10-18T01:57:17.837Z,1018.05
2017-10-18T01:58:12.339Z,1018.02
2017-10-18T01:58:12.912Z,1018.03
2017-10-18T01:58:13.514Z,1018.00
2017-10-18T01:58:14.113Z,1018.00
2017-10-18T01:58:14.712Z,1017.98
2017-10-18T01:58:15.313Z,1018.00
2017-10-18T01:58:15.912Z,1018.02
2017-10-18T01:58:16.513Z,1017.99
2017-10-18T01:59:09.995Z,1017.89
2017-10-18T01:59:10.566Z,1017.94
2017-10-18T01:59:11.166Z,1017.99
2017-10-18T01:59:11.765Z,1017.93
2017-10-18T01:59:12.365Z,1017.94
2017-10-18T01:59:12.966Z,1017.92
2017-10-18T01:59:13.565Z,1017.94
2017-10-18T01:59:14.169Z,1017.92
2017-10-18T02:00:07.642Z,1017.85
2017-10-18T02:00:08.220Z,1017.85
2017-10-18T02:00:08.818Z,1017.82
2017-10-18T02:00:09.417Z,1017.86
2017-10-18T02:00:10.018Z,1017.84
2017-10-18T02:00:10.617Z,1017.85
2017-10-18T02:01:24.145Z,1017.78
2017-10-18T02:01:24.714Z,1017.82
2017-10-18T02:01:25.311Z,1017.79
2017-10-18T02:01:25.911Z,1017.80
2017-10-18T02:01:26.510Z,1017.76
2017-10-18T02:01:27.112Z,1017.80
2017-10-18T02:01:27.711Z,1017.80
2017-10-18T02:01:28.311Z,1017.81
2017-10-18T02:02:23.324Z,1017.78
2017-10-18T02:02:23.898Z,1017.77
2017-10-18T02:02:24.505Z,1017.79
2017-10-18T02:02:25.103Z,1017.77
2017-10-18T02:02:25.698Z,1017.79
2017-10-18T02:02:26.297Z,1017.77
2017-10-18T02:03:21.283Z,1017.81
2017-10-18T02:03:21.858Z,1017.79
2017-10-18T02:03:22.457Z,1017.78
2017-10-18T02:03:23.057Z,1017.75
2017-10-18T02:03:23.657Z,1017.79
2017-10-18T02:03:24.257Z,1017.78
2017-10-18T02:03:24.859Z,1017.72
2017-10-18T02:03:25.456Z,1017.78
2017-10-18T02:04:18.936Z,1017.81
2017-10-18T02:04:19.509Z,1017.78
2017-10-18T02:04:20.112Z,1017.79
2017-10-18T02:04:20.709Z,1017.79
2017-10-18T02:04:21.309Z,1017.80
2017-10-18T02:04:21.910Z,1017.80
2017-10-18T02:04:22.508Z,1017.84
2017-10-18T02:04:23.109Z,1017.83
2017-10-18T02:05:17.613Z,1017.82
2017-10-18T02:05:18.183Z,1017.83
2017-10-18T02:05:18.790Z,1017.79
2017-10-18T02:05:19.383Z,1017.84
2017-10-18T02:05:19.983Z,1017.82
2017-10-18T02:05:20.583Z,1017.81
2017-10-18T02:05:21.183Z,1017.82
2017-10-18T02:05:21.783Z,1017.85
2017-10-18T02:06:16.285Z,1017.88
2017-10-18T02:06:16.860Z,1017.84
2017-10-18T02:06:17.460Z,1017.84
2017-10-18T02:06:18.061Z,1017.79
2017-10-18T02:06:18.657Z,1017.82
2017-10-18T02:06:19.258Z,1017.86
2017-10-18T02:06:19.857Z,1017.82
2017-10-18T02:06:20.457Z,1017.83
2017-10-18T02:07:14.961Z,1017.86
2017-10-18T02:07:15.535Z,1017.84
2017-10-18T02:07:16.135Z,1017.84
2017-10-18T02:07:16.735Z,1017.85
2017-10-18T02:07:17.335Z,1017.83
2017-10-18T02:07:17.934Z,1017.86
2017-10-18T02:07:18.534Z,1017.82
2017-10-18T02:07:19.135Z,1017.86
2017-10-18T02:08:12.614Z,1017.85
2017-10-18T02:08:13.187Z,1017.86
2017-10-18T02:08:13.787Z,1017.89
2017-10-18T02:08:14.389Z,1017.88
2017-10-18T02:08:14.987Z,1017.88
2017-10-18T02:08:15.588Z,1017.88
2017-10-18T02:08:16.188Z,1017.87
2017-10-18T02:08:16.787Z,1017.86
2017-10-18T02:09:10.779Z,1017.90
2017-10-18T02:09:11.354Z,1017.89
2017-10-18T02:09:11.950Z,1017.88
2017-10-18T02:09:12.549Z,1017.90
2017-10-18T02:09:13.153Z,1017.86
2017-10-18T02:09:13.749Z,1017.86
2017-10-18T02:09:14.350Z,1017.88
2017-10-18T02:10:08.837Z,1017.91
2017-10-18T02:10:09.414Z,1017.89
2017-10-18T02:10:10.011Z,1017.87
2017-10-18T02:10:10.611Z,1017.86
2017-10-18T02:10:11.215Z,1017.86
2017-10-18T02:10:11.810Z,1017.87
2017-10-18T02:10:12.410Z,1017.89
2017-10-18T02:10:13.011Z,1017.86
2017-10-18T02:11:07.514Z,1017.85
2017-10-18T02:11:08.088Z,1017.84
2017-10-18T02:11:08.688Z,1017.88
2017-10-18T02:11:09.286Z,1017.85
2017-10-18T02:11:09.894Z,1017.84
2017-10-18T02:11:10.487Z,1017.86
2017-10-18T02:11:11.087Z,1017.84
2017-10-18T02:11:11.687Z,1017.86
2017-10-18T02:12:06.701Z,1017.85
2017-10-18T02:12:07.274Z,1017.86
2017-10-18T02:12:07.874Z,1017.86
2017-10-18T02:12:08.475Z,1017.85
2017-10-18T02:12:09.075Z,1017.86
2017-10-18T02:12:09.675Z,1017.87
2017-10-18T02:12:10.275Z,1017.83
2017-10-18T02:13:03.844Z,1017.84
2017-10-18T02:13:04.416Z,1017.81
2017-10-18T02:13:05.015Z,1017.82
2017-10-18T02:13:05.615Z,1017.85
2017-10-18T02:13:06.215Z,1017.84
2017-10-18T02:13:06.817Z,1017.83
2017-10-18T02:13:07.419Z,1017.80
2017-10-18T02:13:08.015Z,1017.84
2017-10-18T02:14:01.491Z,1017.81
2017-10-18T02:14:02.068Z,1017.83
2017-10-18T02:14:02.668Z,1017.81
2017-10-18T02:14:03.268Z,1017.79
2017-10-18T02:14:03.868Z,1017.80
2017-10-18T02:14:04.468Z,1017.80
2017-10-18T02:14:05.067Z,1017.81
2017-10-18T02:14:05.667Z,1017.80
2017-10-18T02:14:59.145Z,1017.77
2017-10-18T02:14:59.718Z,1017.76
2017-10-18T02:15:00.318Z,1017.77
2017-10-18T02:15:00.917Z,1017.77
2017-10-18T02:15:01.532Z,1017.75
2017-10-18T02:15:02.120Z,1017.75
2017-10-18T02:15:02.718Z,1017.76
2017-10-18T02:15:03.320Z,1017.76
2017-10-18T02:15:57.820Z,1017.72
2017-10-18T02:15:58.394Z,1017.70
2017-10-18T02:15:58.994Z,1017.70
2017-10-18T02:15:59.598Z,1017.72
2017-10-18T02:16:00.193Z,1017.70
2017-10-18T02:16:00.795Z,1017.71
2017-10-18T02:16:01.393Z,1017.72
2017-10-18T02:16:01.993Z,1017.74
2017-10-18T02:16:55.473Z,1017.71
2017-10-18T02:16:56.045Z,1017.73
2017-10-18T02:16:56.646Z,1017.74
2017-10-18T02:16:57.245Z,1017.72
2017-10-18T02:16:57.846Z,1017.71
2017-10-18T02:16:58.452Z,1017.69
2017-10-18T02:16:59.047Z,1017.71
2017-10-18T02:16:59.645Z,1017.69
2017-10-18T02:17:54.148Z,1017.69
2017-10-18T02:17:54.722Z,1017.69
2017-10-18T02:17:55.321Z,1017.68
2017-10-18T02:17:55.927Z,1017.71
2017-10-18T02:17:56.522Z,1017.69
2017-10-18T02:17:57.120Z,1017.71
2017-10-18T02:17:57.722Z,1017.73
2017-10-18T02:17:58.321Z,1017.73
2017-10-18T02:18:51.798Z,1017.70
2017-10-18T02:18:52.373Z,1017.73
2017-10-18T02:18:52.974Z,1017.67
2017-10-18T02:18:53.574Z,1017.67
2017-10-18T02:18:54.173Z,1017.72
2017-10-18T02:18:54.774Z,1017.70
2017-10-18T02:18:55.374Z,1017.68
2017-10-18T02:18:55.974Z,1017.73
2017-10-18T02:19:49.450Z,1017.71
2017-10-18T02:19:50.026Z,1017.72
2017-10-18T02:19:50.625Z,1017.75
2017-10-18T02:19:51.227Z,1017.71
2017-10-18T02:19:51.825Z,1017.75
2017-10-18T02:19:52.425Z,1017.69
2017-10-18T02:19:53.030Z,1017.70
2017-10-18T02:19:53.624Z,1017.72
2017-10-18T02:20:47.102Z,1017.79
2017-10-18T02:20:47.679Z,1017.76
2017-10-18T02:20:48.276Z,1017.76
2017-10-18T02:20:48.894Z,1017.74
2017-10-18T02:20:49.481Z,1017.74
2017-10-18T02:20:50.076Z,1017.73
2017-10-18T02:20:50.687Z,1017.74
2017-10-18T02:20:51.274Z,1017.77
2017-10-18T02:21:44.754Z,1017.77
2017-10-18T02:21:45.329Z,1017.76
2017-10-18T02:21:45.931Z,1017.72
2017-10-18T02:21:46.531Z,1017.74
2017-10-18T02:21:47.128Z,1017.79
2017-10-18T02:21:47.729Z,1017.77
2017-10-18T02:21:48.330Z,1017.75
2017-10-18T02:21:48.928Z,1017.77
2017-10-18T02:22:42.405Z,1017.71
2017-10-18T02:22:42.980Z,1017.73
2017-10-18T02:22:43.580Z,1017.74
2017-10-18T02:22:44.190Z,1017.72
2017-10-18T02:22:44.779Z,1017.73
2017-10-18T02:22:45.381Z,1017.75
2017-10-18T02:22:45.980Z,1017.74
2017-10-18T02:22:46.578Z,1017.77
2017-10-18T02:23:40.059Z,1017.75
2017-10-18T02:23:40.632Z,1017.78
2017-10-18T02:23:41.233Z,1017.76
2017-10-18T02:23:41.832Z,1017.74
2017-10-18T02:23:42.431Z,1017.76
2017-10-18T02:23:43.032Z,1017.78
2017-10-18T02:23:43.631Z,1017.77
2017-10-18T02:23:44.232Z,1017.79
2017-10-18T02:24:37.709Z,1017.82
2017-10-18T02:24:38.284Z,1017.79
2017-10-18T02:24:38.884Z,1017.80
2017-10-18T02:24:39.485Z,1017.80
2017-10-18T02:24:40.083Z,1017.81
2017-10-18T02:24:40.683Z,1017.81
2017-10-18T02:24:41.283Z,1017.81
2017-10-18T02:24:41.886Z,1017.81
2017-10-18T02:25:35.361Z,1017.74
2017-10-18T02:25:35.935Z,1017.73
2017-10-18T02:25:36.535Z,1017.75
2017-10-18T02:25:37.135Z,1017.77
2017-10-18T02:25:37.734Z,1017.80
2017-10-18T02:25:38.335Z,1017.76
2017-10-18T02:25:38.940Z,1017.80
2017-10-18T02:25:39.535Z,1017.78
2017-10-18T02:26:33.012Z,1017.72
2017-10-18T02:26:33.589Z,1017.73
2017-10-18T02:26:34.188Z,1017.74
2017-10-18T02:26:34.786Z,1017.74
2017-10-18T02:26:35.386Z,1017.75
2017-10-18T02:26:35.987Z,1017.72
2017-10-18T02:26:36.587Z,1017.67
2017-10-18T02:26:37.187Z,1017.70
2017-10-18T02:27:31.690Z,1017.69
2017-10-18T02:27:32.268Z,1017.65
2017-10-18T02:27:32.861Z,1017.68
2017-10-18T02:27:33.461Z,1017.67
2017-10-18T02:27:34.062Z,1017.67
2017-10-18T02:27:34.661Z,1017.67
2017-10-18T02:27:35.261Z,1017.68
2017-10-18T02:27:35.861Z,1017.70
2017-10-18T02:28:29.341Z,1017.64
2017-10-18T02:28:29.915Z,1017.63
2017-10-18T02:28:30.514Z,1017.65
2017-10-18T02:28:31.114Z,1017.69
2017-10-18T02:28:31.715Z,1017.66
2017-10-18T02:28:32.313Z,1017.62
2017-10-18T02:28:32.919Z,1017.63
2017-10-18T02:28:33.513Z,1017.64
2017-10-18T02:29:26.991Z,1017.57
2017-10-18T02:29:27.567Z,1017.59
2017-10-18T02:29:28.165Z,1017.59
2017-10-18T02:29:28.765Z,1017.61
2017-10-18T02:29:29.365Z,1017.58
2017-10-18T02:29:29.965Z,1017.63
2017-10-18T02:29:30.565Z,1017.62
2017-10-18T02:29:31.164Z,1017.61
2017-10-18T02:30:25.668Z,1017.57
2017-10-18T02:30:26.241Z,1017.59
2017-10-18T02:30:26.841Z,1017.60
2017-10-18T02:30:27.440Z,1017.58
2017-10-18T02:30:28.040Z,1017.60
2017-10-18T02:30:28.640Z,1017.59
2017-10-18T02:30:29.239Z,1017.61
2017-10-18T02:30:29.839Z,1017.61
2017-10-18T02:31:23.318Z,1017.62
2017-10-18T02:31:23.894Z,1017.60
2017-10-18T02:31:24.493Z,1017.64
2017-10-18T02:31:25.094Z,1017.60
2017-10-18T02:31:25.693Z,1017.60
2017-10-18T02:31:26.299Z,1017.61
2017-10-18T02:31:26.894Z,1017.63
2017-10-18T02:31:27.493Z,1017.61
2017-10-18T02:32:22.002Z,1017.66
2017-10-18T02:32:22.576Z,1017.65
2017-10-18T02:32:23.168Z,1017.65
2017-10-18T02:32:23.767Z,1017.64
2017-10-18T02:32:24.367Z,1017.66
2017-10-18T02:32:24.968Z,1017.64
2017-10-18T02:32:25.570Z,1017.65
2017-10-18T02:32:26.167Z,1017.66
2017-10-18T02:33:20.674Z,1017.70
2017-10-18T02:33:21.244Z,1017.67
2017-10-18T02:33:21.844Z,1017.69
2017-10-18T02:33:22.443Z,1017.69
2017-10-18T02:33:23.044Z,1017.70
2017-10-18T02:33:23.642Z,1017.72
2017-10-18T02:33:24.242Z,1017.68
2017-10-18T02:33:24.844Z,1017.74
2017-10-18T02:34:19.346Z,1017.72
2017-10-18T02:34:19.920Z,1017.75
2017-10-18T02:34:20.520Z,1017.72
2017-10-18T02:34:21.119Z,1017.74
2017-10-18T02:34:21.719Z,1017.73
2017-10-18T02:34:22.318Z,1017.70
2017-10-18T02:34:22.925Z,1017.73
2017-10-18T02:34:23.519Z,1017.77
2017-10-18T02:51:07.074Z,1017.60
2017-10-18T02:51:07.643Z,1017.59
2017-10-18T02:51:08.242Z,1017.60
2017-10-18T02:51:08.842Z,1017.59
2017-10-18T02:51:09.444Z,1017.60
2017-10-18T02:51:10.041Z,1017.60
2017-10-18T02:51:10.642Z,1017.61
2017-10-18T02:51:11.245Z,1017.59
2017-10-18T02:52:04.719Z,1017.57
2017-10-18T02:52:05.294Z,1017.53
2017-10-18T02:52:05.894Z,1017.53
2017-10-18T02:52:06.496Z,1017.54
2017-10-18T02:52:07.096Z,1017.55
2017-10-18T02:52:07.693Z,1017.55
2017-10-18T02:52:08.294Z,1017.56
2017-10-18T02:52:08.893Z,1017.55
2017-10-18T02:53:03.394Z,1017.52
2017-10-18T02:53:04.922Z,1017.51
2017-10-18T02:53:05.433Z,1017.55
2017-10-18T02:53:06.022Z,1017.54
2017-10-18T02:53:06.622Z,1017.49
2017-10-18T02:53:07.221Z,1017.53
2017-10-18T02:53:07.822Z,1017.51
2017-10-18T02:54:01.869Z,1017.50
2017-10-18T02:54:02.440Z,1017.49
2017-10-18T02:54:03.043Z,1017.50
2017-10-18T02:54:03.644Z,1017.50
2017-10-18T02:54:04.243Z,1017.53
2017-10-18T02:54:04.840Z,1017.47
2017-10-18T02:54:05.439Z,1017.50
2017-10-18T02:54:06.040Z,1017.50
2017-10-18T02:54:59.521Z,1017.45
2017-10-18T02:55:00.094Z,1017.46
2017-10-18T02:55:00.693Z,1017.41
2017-10-18T02:55:01.294Z,1017.48
2017-10-18T02:55:01.893Z,1017.44
2017-10-18T02:55:02.493Z,1017.44
2017-10-18T02:55:03.093Z,1017.45
2017-10-18T02:55:03.693Z,1017.49
2017-10-18T02:55:57.173Z,1017.44
2017-10-18T02:55:57.746Z,1017.44
2017-10-18T02:55:58.345Z,1017.43
2017-10-18T02:55:58.945Z,1017.46
2017-10-18T02:55:59.550Z,1017.44
2017-10-18T02:56:00.148Z,1017.45
2017-10-18T02:56:00.750Z,1017.46
2017-10-18T02:56:01.345Z,1017.46
2017-10-18T02:56:54.823Z,1017.38
2017-10-18T02:56:55.397Z,1017.41
2017-10-18T02:56:55.997Z,1017.42
2017-10-18T02:56:56.597Z,1017.39
2017-10-18T02:56:57.198Z,1017.44
2017-10-18T02:56:57.797Z,1017.42
2017-10-18T02:56:58.397Z,1017.41
2017-10-18T02:56:58.998Z,1017.44
2017-10-18T02:57:53.499Z,1017.40
2017-10-18T02:57:54.079Z,1017.43
2017-10-18T02:57:54.672Z,1017.45
2017-10-18T02:57:55.273Z,1017.43
2017-10-18T02:57:55.872Z,1017.40
2017-10-18T02:57:56.472Z,1017.45
2017-10-18T02:57:57.072Z,1017.42
2017-10-18T02:57:57.672Z,1017.44
2017-10-18T02:58:51.152Z,1017.46
2017-10-18T02:58:51.727Z,1017.43
2017-10-18T02:58:52.326Z,1017.43
2017-10-18T02:58:52.924Z,1017.44
2017-10-18T02:58:53.524Z,1017.48
2017-10-18T02:58:54.124Z,1017.43
2017-10-18T02:58:54.724Z,1017.46
2017-10-18T02:58:55.324Z,1017.43
2017-10-18T02:59:48.803Z,1017.47
2017-10-18T02:59:49.382Z,1017.47
2017-10-18T02:59:49.976Z,1017.48
2017-10-18T02:59:50.576Z,1017.49
2017-10-18T02:59:51.177Z,1017.46
2017-10-18T02:59:51.776Z,1017.46
2017-10-18T02:59:52.376Z,1017.50
2017-10-18T02:59:52.978Z,1017.47
2017-10-18T03:00:47.478Z,1017.47
2017-10-18T03:00:48.053Z,1017.46
2017-10-18T03:00:48.655Z,1017.44
2017-10-18T03:00:49.252Z,1017.45
2017-10-18T03:00:49.851Z,1017.47
2017-10-18T03:00:50.453Z,1017.49
2017-10-18T03:00:51.056Z,1017.49
2017-10-18T03:00:51.654Z,1017.50
2017-10-18T03:01:45.130Z,1017.48
2017-10-18T03:01:45.705Z,1017.50
2017-10-18T03:01:46.307Z,1017.48
2017-10-18T03:01:46.904Z,1017.48
2017-10-18T03:01:47.504Z,1017.49
2017-10-18T03:01:48.104Z,1017.50
2017-10-18T03:01:48.703Z,1017.48
2017-10-18T03:01:49.303Z,1017.50
2017-10-18T03:02:42.781Z,1017.51
2017-10-18T03:02:43.357Z,1017.51
2017-10-18T03:02:43.958Z,1017.54
2017-10-18T03:02:44.573Z,1017.55
2017-10-18T03:02:45.157Z,1017.53
2017-10-18T03:02:45.756Z,1017.53
2017-10-18T03:02:46.357Z,1017.53
2017-10-18T03:02:46.956Z,1017.53
2017-10-18T03:03:40.433Z,1017.56
2017-10-18T03:03:41.012Z,1017.55
2017-10-18T03:03:41.610Z,1017.57
2017-10-18T03:03:42.209Z,1017.54
2017-10-18T03:03:42.810Z,1017.56
2017-10-18T03:03:43.408Z,1017.56
2017-10-18T03:03:44.008Z,1017.57
2017-10-18T03:03:44.616Z,1017.55
2017-10-18T03:04:39.110Z,1017.55
2017-10-18T03:04:39.685Z,1017.54
2017-10-18T03:04:40.283Z,1017.54
2017-10-18T03:04:40.883Z,1017.56
2017-10-18T03:04:41.484Z,1017.54
2017-10-18T03:04:42.083Z,1017.54
2017-10-18T03:04:42.683Z,1017.54
2017-10-18T03:04:43.283Z,1017.55
2017-10-18T03:05:37.785Z,1017.53
2017-10-18T03:05:38.358Z,1017.55
2017-10-18T03:05:38.959Z,1017.55
2017-10-18T03:05:39.559Z,1017.54
2017-10-18T03:05:40.159Z,1017.56
2017-10-18T03:05:40.759Z,1017.53
2017-10-18T03:05:41.360Z,1017.54
2017-10-18T03:05:41.960Z,1017.54
2017-10-18T03:06:35.437Z,1017.52
2017-10-18T03:06:36.015Z,1017.55
2017-10-18T03:06:36.612Z,1017.51
2017-10-18T03:06:37.210Z,1017.51
2017-10-18T03:06:37.811Z,1017.47
2017-10-18T03:06:38.411Z,1017.51
2017-10-18T03:06:39.011Z,1017.51
2017-10-18T03:06:39.610Z,1017.49
2017-10-18T03:07:33.088Z,1017.53
2017-10-18T03:07:33.664Z,1017.52
2017-10-18T03:07:34.262Z,1017.55
2017-10-18T03:07:34.862Z,1017.52
2017-10-18T03:07:35.463Z,1017.50
2017-10-18T03:07:36.067Z,1017.52
2017-10-18T03:07:36.661Z,1017.51
2017-10-18T03:07:37.265Z,1017.51
2017-10-18T03:08:30.739Z,1017.50
2017-10-18T03:08:31.314Z,1017.49
2017-10-18T03:08:31.917Z,1017.48
2017-10-18T03:08:32.514Z,1017.49
2017-10-18T03:08:33.114Z,1017.46
2017-10-18T03:08:33.714Z,1017.50
2017-10-18T03:08:34.314Z,1017.46
2017-10-18T03:08:34.915Z,1017.51
2017-10-18T03:09:28.391Z,1017.45
2017-10-18T03:09:28.967Z,1017.45
2017-10-18T03:09:29.567Z,1017.45
2017-10-18T03:09:30.166Z,1017.42
2017-10-18T03:09:30.766Z,1017.45
2017-10-18T03:09:31.374Z,1017.44
2017-10-18T03:09:31.966Z,1017.44
2017-10-18T03:09:32.566Z,1017.41
2017-10-18T03:10:26.043Z,1017.40
2017-10-18T03:10:26.618Z,1017.37
2017-10-18T03:10:27.219Z,1017.42
2017-10-18T03:10:27.818Z,1017.38
2017-10-18T03:10:28.417Z,1017.38
2017-10-18T03:10:29.018Z,1017.42
2017-10-18T03:10:29.617Z,1017.45
2017-10-18T03:10:30.217Z,1017.41
2017-10-18T03:11:24.720Z,1017.50
2017-10-18T03:11:25.298Z,1017.46
2017-10-18T03:11:25.892Z,1017.47
2017-10-18T03:11:26.493Z,1017.42
2017-10-18T03:11:27.093Z,1017.46
2017-10-18T03:11:27.692Z,1017.46
2017-10-18T03:11:28.291Z,1017.42
2017-10-18T03:11:28.893Z,1017.46
2017-10-18T03:12:23.395Z,1017.46
2017-10-18T03:12:23.975Z,1017.48
2017-10-18T03:12:24.569Z,1017.49
2017-10-18T03:12:25.168Z,1017.47
2017-10-18T03:12:25.787Z,1017.50
2017-10-18T03:12:26.374Z,1017.50
2017-10-18T03:12:26.969Z,1017.47
2017-10-18T03:12:27.567Z,1017.45
2017-10-18T03:13:21.046Z,1017.49
2017-10-18T03:13:21.621Z,1017.47
2017-10-18T03:13:22.221Z,1017.49
2017-10-18T03:13:22.820Z,1017.51
2017-10-18T03:13:23.422Z,1017.46
2017-10-18T03:13:24.024Z,1017.48
2017-10-18T03:13:24.620Z,1017.48
2017-10-18T03:13:25.220Z,1017.47
2017-10-18T03:14:18.698Z,1017.50
2017-10-18T03:14:19.274Z,1017.50
2017-10-18T03:14:19.872Z,1017.50
2017-10-18T03:14:20.473Z,1017.52
2017-10-18T03:14:21.073Z,1017.49
2017-10-18T03:14:21.675Z,1017.52
2017-10-18T03:14:22.272Z,1017.52
2017-10-18T03:14:22.872Z,1017.48
2017-10-18T03:15:16.350Z,1017.52
2017-10-18T03:15:16.924Z,1017.51
2017-10-18T03:15:17.525Z,1017.52
2017-10-18T03:15:18.125Z,1017.52
2017-10-18T03:15:18.724Z,1017.53
2017-10-18T03:15:19.325Z,1017.52
2017-10-18T03:15:19.923Z,1017.52
2017-10-18T03:15:20.524Z,1017.48
2017-10-18T03:16:15.027Z,1017.48
2017-10-18T03:16:15.600Z,1017.51
2017-10-18T03:16:16.200Z,1017.54
2017-10-18T03:16:16.798Z,1017.54
2017-10-18T03:16:17.399Z,1017.50
2017-10-18T03:16:17.999Z,1017.50
2017-10-18T03:16:18.598Z,1017.50
2017-10-18T03:16:19.198Z,1017.53
2017-10-18T03:17:12.677Z,1017.53
2017-10-18T03:17:13.253Z,1017.56
2017-10-18T03:17:13.852Z,1017.52
2017-10-18T03:17:14.452Z,1017.57
2017-10-18T03:17:15.052Z,1017.56
2017-10-18T03:17:15.651Z,1017.53
2017-10-18T03:17:16.251Z,1017.55
2017-10-18T03:17:16.853Z,1017.54
2017-10-18T03:18:10.329Z,1017.57
2017-10-18T03:18:10.903Z,1017.55
2017-10-18T03:18:11.504Z,1017.57
2017-10-18T03:18:12.102Z,1017.58
2017-10-18T03:18:12.702Z,1017.56
2017-10-18T03:18:13.302Z,1017.55
2017-10-18T03:18:13.904Z,1017.56
2017-10-18T03:18:14.503Z,1017.58
2017-10-18T03:19:07.981Z,1017.62
2017-10-18T03:19:08.556Z,1017.62
2017-10-18T03:19:09.156Z,1017.61
2017-10-18T03:19:09.755Z,1017.61
2017-10-18T03:19:10.360Z,1017.62
2017-10-18T03:19:10.955Z,1017.60
2017-10-18T03:19:11.555Z,1017.62
2017-10-18T03:19:12.158Z,1017.58
2017-10-18T03:20:06.657Z,1017.56
2017-10-18T03:20:07.230Z,1017.56
2017-10-18T03:20:07.829Z,1017.56
2017-10-18T03:20:08.436Z,1017.54
2017-10-18T03:20:09.029Z,1017.53
2017-10-18T03:20:09.628Z,1017.57
2017-10-18T03:20:10.229Z,1017.55
2017-10-18T03:20:10.829Z,1017.55
2017-10-18T03:21:04.310Z,1017.53
2017-10-18T03:21:04.881Z,1017.53
2017-10-18T03:21:05.482Z,1017.54
2017-10-18T03:21:06.082Z,1017.55
2017-10-18T03:21:06.681Z,1017.55
2017-10-18T03:21:07.281Z,1017.57
2017-10-18T03:21:07.882Z,1017.55
2017-10-18T03:21:08.481Z,1017.56